Terminal Aerodrome Forecast
Issued by NWS Bismarck, ND

Home | Current Version | Previous Version | Graphics & Text | Print | Product List | Glossary On
Versions: 1 2 3 4 5 6 7 8 9 10 11 12 13 14 15 16 17 18 19 20 21 22 23 24 25
000
FTUS43 KBIS 221129
TAFBIS
TAF
KBIS 221129Z 2212/2312 28005KT P6SM OVC006
      TEMPO 2212/2215 4SM BR OVC004
     FM221700 28007KT P6SM BKN015 OVC025
     FM222200 28007KT P6SM OVC015
     FM230700 26004KT 5SM BR OVC010=

USA.gov is the U.S. government's official web portal to all federal, state and local government web resources and services.